createdAt,value
2022-10-01T00:01:19.362Z,12.70
2022-10-01T00:03:47.663Z,12.60
2022-10-01T00:06:20.397Z,12.60
2022-10-01T00:08:50.270Z,12.40
2022-10-01T00:11:23.558Z,12.30
2022-10-01T00:13:51.414Z,12.20
2022-10-01T00:16:26.949Z,12.10
2022-10-01T00:18:55.643Z,12.00
2022-10-01T00:21:27.128Z,12.00
2022-10-01T00:24:03.332Z,11.90
2022-10-01T00:26:33.031Z,11.90
2022-10-01T00:29:10.181Z,11.90
2022-10-01T00:31:37.494Z,11.90
2022-10-01T00:34:05.060Z,11.90
2022-10-01T00:36:33.091Z,11.90
2022-10-01T00:39:02.929Z,11.80
2022-10-01T00:41:32.570Z,11.70
2022-10-01T00:44:02.466Z,11.70
2022-10-01T00:46:40.367Z,11.80
2022-10-01T00:49:15.307Z,11.80
2022-10-01T00:51:49.742Z,11.80
2022-10-01T00:54:34.376Z,11.80
2022-10-01T00:57:02.470Z,11.80
2022-10-01T00:59:30.288Z,11.80
2022-10-01T01:01:57.306Z,11.80
2022-10-01T01:04:24.023Z,11.80
2022-10-01T01:06:57.764Z,11.70
2022-10-01T01:09:46.874Z,11.70
2022-10-01T01:12:19.677Z,11.70
2022-10-01T01:15:20.489Z,11.70
2022-10-01T01:18:22.875Z,11.70
2022-10-01T01:21:30.157Z,11.70
2022-10-01T01:24:23.668Z,11.70
2022-10-01T01:26:56.155Z,11.60
2022-10-01T01:29:29.041Z,11.70
2022-10-01T01:32:02.645Z,11.60
2022-10-01T01:34:31.453Z,11.60
2022-10-01T01:37:12.437Z,11.60
2022-10-01T01:39:43.974Z,11.60
2022-10-01T01:42:27.969Z,11.50
2022-10-01T01:44:58.207Z,11.60
2022-10-01T01:47:29.547Z,11.60
2022-10-01T01:49:58.042Z,11.60
2022-10-01T01:52:24.858Z,11.60
2022-10-01T01:54:52.420Z,11.60
2022-10-01T01:57:20.371Z,11.60
2022-10-01T01:59:47.301Z,11.50
2022-10-01T02:02:23.427Z,11.50
2022-10-01T02:05:00.233Z,11.60
2022-10-01T02:08:12.605Z,11.50
2022-10-01T02:10:58.023Z,11.50
2022-10-01T02:13:50.363Z,11.50
2022-10-01T02:16:48.078Z,11.50
2022-10-01T02:19:23.093Z,11.50
2022-10-01T02:22:14.342Z,11.50
2022-10-01T02:25:00.100Z,11.50
2022-10-01T02:27:29.461Z,11.50
2022-10-01T02:30:07.196Z,11.40
2022-10-01T02:32:39.563Z,11.40
2022-10-01T02:35:08.572Z,11.40
2022-10-01T02:37:37.510Z,11.40
2022-10-01T02:40:08.430Z,11.40
2022-10-01T02:42:36.172Z,11.40
2022-10-01T02:45:04.939Z,11.40
2022-10-01T02:47:44.537Z,11.30
2022-10-01T02:50:13.047Z,11.30
2022-10-01T02:52:49.504Z,11.30
2022-10-01T02:55:34.170Z,11.40
2022-10-01T02:58:01.174Z,11.40
2022-10-01T03:00:28.598Z,11.40
2022-10-01T03:02:55.501Z,11.40
2022-10-01T03:05:22.450Z,11.40
2022-10-01T03:07:49.500Z,11.40
2022-10-01T03:10:16.595Z,11.40
2022-10-01T03:12:46.506Z,11.50
2022-10-01T03:15:15.747Z,11.40
2022-10-01T03:17:42.930Z,11.40
2022-10-01T03:20:10.762Z,11.40
2022-10-01T03:22:37.753Z,11.40
2022-10-01T03:25:04.873Z,11.40
2022-10-01T03:27:31.618Z,11.40
2022-10-01T03:29:58.305Z,11.40
2022-10-01T03:32:25.204Z,11.40
2022-10-01T03:34:51.869Z,11.30
2022-10-01T03:37:18.565Z,11.40
2022-10-01T03:39:45.262Z,11.40
2022-10-01T03:42:11.924Z,11.40
2022-10-01T03:44:38.688Z,11.40
2022-10-01T03:47:05.419Z,11.40
2022-10-01T03:49:32.246Z,11.40
2022-10-01T03:51:59.186Z,11.40
2022-10-01T03:54:26.290Z,11.40
2022-10-01T03:56:53.353Z,11.30
2022-10-01T03:59:20.576Z,11.40
2022-10-01T04:01:47.514Z,11.40
2022-10-01T04:04:14.963Z,11.40
2022-10-01T04:06:41.643Z,11.40
2022-10-01T04:09:09.713Z,11.40
2022-10-01T04:11:37.425Z,11.50
2022-10-01T04:14:04.580Z,11.50
2022-10-01T04:16:34.690Z,11.40
2022-10-01T04:19:02.498Z,11.40
2022-10-01T04:21:29.255Z,11.50
2022-10-01T04:23:56.131Z,11.50
2022-10-01T04:26:22.849Z,11.50
2022-10-01T04:28:49.506Z,11.50
2022-10-01T04:31:25.210Z,11.50
2022-10-01T04:33:57.109Z,11.50
2022-10-01T04:36:25.130Z,11.50
2022-10-01T04:38:58.007Z,11.60
2022-10-01T04:41:30.314Z,11.50
2022-10-01T04:43:59.367Z,11.60
2022-10-01T04:46:26.453Z,11.60
2022-10-01T04:48:53.381Z,11.60
2022-10-01T04:51:20.107Z,11.60
2022-10-01T04:53:47.018Z,11.60
2022-10-01T04:56:13.799Z,11.60
2022-10-01T04:58:41.262Z,11.60
2022-10-01T05:01:08.115Z,11.60
2022-10-01T05:03:34.894Z,11.60
2022-10-01T05:06:01.829Z,11.60
2022-10-01T05:08:28.874Z,11.60
2022-10-01T05:10:55.595Z,11.60
2022-10-01T05:13:22.285Z,11.60
2022-10-01T05:15:50.867Z,11.60
2022-10-01T05:18:17.583Z,11.60
2022-10-01T05:20:44.285Z,11.60
2022-10-01T05:23:10.995Z,11.60
2022-10-01T05:25:37.696Z,11.60
2022-10-01T05:28:05.659Z,11.60
2022-10-01T05:30:33.967Z,11.60
2022-10-01T05:33:02.272Z,11.60
2022-10-01T05:35:29.480Z,11.70
2022-10-01T05:37:58.143Z,11.80
2022-10-01T05:40:27.383Z,11.70
2022-10-01T05:42:56.138Z,11.80
2022-10-01T05:45:23.709Z,11.90
2022-10-01T05:48:04.728Z,11.90
2022-10-01T05:50:34.514Z,12.00
2022-10-01T05:53:02.023Z,11.90
2022-10-01T05:55:34.475Z,11.90
2022-10-01T05:58:06.521Z,12.00
2022-10-01T06:00:34.881Z,12.00
2022-10-01T06:03:03.029Z,12.10
2022-10-01T06:05:31.307Z,12.20
2022-10-01T06:07:58.655Z,12.20
2022-10-01T06:10:28.248Z,12.20
2022-10-01T06:13:01.004Z,12.20
2022-10-01T06:15:28.505Z,12.30
2022-10-01T06:17:55.481Z,12.30
2022-10-01T06:20:22.276Z,12.30
2022-10-01T06:22:56.449Z,12.30
2022-10-01T06:25:24.289Z,12.30
2022-10-01T06:27:57.804Z,12.40
2022-10-01T06:30:29.588Z,12.40
2022-10-01T06:33:13.255Z,12.50
2022-10-01T06:35:45.419Z,12.50
2022-10-01T06:38:12.396Z,12.50
2022-10-01T06:40:39.697Z,12.60
2022-10-01T06:43:08.256Z,12.70
2022-10-01T06:45:43.433Z,12.70
2022-10-01T06:48:13.938Z,12.70
2022-10-01T06:50:42.496Z,12.80
2022-10-01T06:53:09.472Z,12.80
2022-10-01T06:55:37.560Z,12.80
2022-10-01T06:58:07.006Z,12.80
2022-10-01T07:00:36.361Z,12.80
2022-10-01T07:03:06.466Z,12.90
2022-10-01T07:05:33.409Z,12.90
2022-10-01T07:08:00.278Z,13.00
2022-10-01T07:10:27.023Z,13.00
2022-10-01T07:12:53.750Z,13.00
2022-10-01T07:15:25.645Z,13.00
2022-10-01T07:17:52.776Z,13.00
2022-10-01T07:20:21.099Z,13.10
2022-10-01T07:22:49.589Z,13.00
2022-10-01T07:25:17.334Z,13.10
2022-10-01T07:27:44.180Z,13.10
2022-10-01T07:30:11.274Z,13.20
2022-10-01T07:32:38.028Z,13.20
2022-10-01T07:35:05.884Z,13.30
2022-10-01T07:37:32.615Z,13.40
2022-10-01T07:40:00.458Z,13.50
2022-10-01T07:42:29.928Z,13.50
2022-10-01T07:44:56.960Z,13.40
2022-10-01T07:47:23.695Z,13.60
2022-10-01T07:49:50.363Z,13.60
2022-10-01T07:52:17.084Z,13.60
2022-10-01T07:54:44.001Z,13.80
2022-10-01T07:57:10.809Z,13.90
2022-10-01T07:59:38.074Z,14.00
2022-10-01T08:02:04.834Z,14.20
2022-10-01T08:04:50.132Z,14.20
2022-10-01T08:07:16.955Z,14.40
2022-10-01T08:09:43.659Z,14.40
2022-10-01T08:12:10.362Z,14.40
2022-10-01T08:14:37.052Z,14.50
2022-10-01T08:17:03.815Z,14.40
2022-10-01T08:19:30.834Z,14.50
2022-10-01T08:21:57.568Z,14.50
2022-10-01T08:24:24.875Z,14.50
2022-10-01T08:26:54.405Z,14.50
2022-10-01T08:29:21.306Z,14.50
2022-10-01T08:31:49.258Z,14.60
2022-10-01T08:34:16.084Z,14.70
2022-10-01T08:36:42.794Z,14.80
2022-10-01T08:39:09.647Z,14.80
2022-10-01T08:41:57.566Z,14.90
2022-10-01T08:44:30.715Z,15.00
2022-10-01T08:47:01.853Z,15.10
2022-10-01T08:49:35.243Z,15.20
2022-10-01T08:52:05.413Z,15.30
2022-10-01T08:54:42.914Z,15.30
2022-10-01T08:57:22.918Z,15.30
2022-10-01T08:59:56.166Z,15.30
2022-10-01T09:02:32.700Z,15.30
2022-10-01T09:05:07.429Z,15.20
2022-10-01T09:07:49.481Z,15.20
2022-10-01T09:10:25.931Z,15.30
2022-10-01T09:13:19.761Z,15.30
2022-10-01T09:15:58.902Z,15.30
2022-10-01T09:18:54.863Z,15.20
2022-10-01T09:21:47.751Z,15.30
2022-10-01T09:24:20.551Z,15.30
2022-10-01T09:26:50.919Z,15.40
2022-10-01T09:29:25.781Z,15.40
2022-10-01T09:31:55.280Z,15.50
2022-10-01T09:34:32.034Z,15.40
2022-10-01T09:37:14.729Z,15.40
2022-10-01T09:40:19.198Z,15.40
2022-10-01T09:42:47.973Z,15.40
2022-10-01T09:45:16.981Z,15.40
2022-10-01T09:47:48.548Z,15.40
2022-10-01T09:50:19.801Z,15.60
2022-10-01T09:52:50.161Z,15.80
2022-10-01T09:55:20.049Z,15.90
2022-10-01T09:57:56.125Z,16.10
2022-10-01T10:00:26.108Z,16.20
2022-10-01T10:02:54.831Z,16.30
2022-10-01T10:05:31.130Z,16.30
2022-10-01T10:08:10.952Z,16.30
2022-10-01T10:10:40.012Z,16.20
2022-10-01T10:13:10.703Z,16.20
2022-10-01T10:15:50.540Z,16.20
2022-10-01T10:18:25.942Z,16.20
2022-10-01T10:20:54.451Z,16.20
2022-10-01T10:23:26.391Z,16.20
2022-10-01T10:26:02.971Z,16.30
2022-10-01T10:28:50.026Z,16.60
2022-10-01T10:31:22.592Z,16.90
2022-10-01T10:34:06.506Z,17.20
2022-10-01T10:36:36.314Z,17.40
2022-10-01T10:39:06.503Z,17.50
2022-10-01T10:41:34.719Z,17.60
2022-10-01T10:44:06.133Z,17.60
2022-10-01T10:46:35.469Z,17.60
2022-10-01T10:49:08.043Z,17.80
2022-10-01T10:52:17.692Z,18.10
2022-10-01T10:54:48.371Z,18.00
2022-10-01T10:57:32.325Z,17.90
2022-10-01T11:00:18.634Z,17.90
2022-10-01T11:03:01.386Z,18.00
2022-10-01T11:05:39.122Z,18.10
2022-10-01T11:08:11.958Z,18.40
2022-10-01T11:10:46.960Z,18.80
2022-10-01T11:13:25.711Z,19.00
2022-10-01T11:16:20.425Z,19.20
2022-10-01T11:18:56.482Z,19.20
2022-10-01T11:21:31.542Z,18.90
2022-10-01T11:24:04.277Z,18.70
2022-10-01T11:26:53.503Z,18.60
2022-10-01T11:29:37.289Z,18.40
2022-10-01T11:32:28.487Z,18.40
2022-10-01T11:35:13.267Z,18.40
2022-10-01T11:38:17.665Z,18.30
2022-10-01T11:40:53.371Z,18.20
2022-10-01T11:43:47.726Z,18.10
2022-10-01T11:46:27.108Z,18.10
2022-10-01T11:49:08.941Z,18.40
2022-10-01T11:51:42.956Z,18.40
2022-10-01T11:54:17.454Z,18.40
2022-10-01T11:57:10.243Z,18.00
2022-10-01T11:59:49.902Z,17.70
2022-10-01T12:02:49.925Z,17.40
2022-10-01T12:05:23.130Z,17.20
2022-10-01T12:08:18.771Z,17.10
2022-10-01T12:10:54.968Z,17.00
2022-10-01T12:13:40.171Z,16.80
2022-10-01T12:16:43.215Z,16.60
2022-10-01T12:19:28.693Z,16.40
2022-10-01T12:22:03.577Z,16.30
2022-10-01T12:24:36.286Z,16.40
2022-10-01T12:27:26.464Z,16.50
2022-10-01T12:30:04.226Z,16.60
2022-10-01T12:32:46.786Z,16.70
2022-10-01T12:35:36.367Z,16.90
2022-10-01T12:38:08.813Z,16.90
2022-10-01T12:41:11.282Z,17.10
2022-10-01T12:43:49.169Z,17.30
2022-10-01T12:46:35.087Z,17.50
2022-10-01T12:49:24.044Z,17.50
2022-10-01T12:52:24.403Z,17.60
2022-10-01T12:54:57.534Z,17.70
2022-10-01T12:57:36.826Z,17.60
2022-10-01T13:00:34.683Z,17.60
2022-10-01T13:03:17.864Z,17.40
2022-10-01T13:05:50.486Z,17.30
2022-10-01T13:08:17.209Z,17.00
2022-10-01T13:11:06.701Z,16.70
2022-10-01T13:13:34.604Z,16.60
2022-10-01T13:16:43.792Z,16.50
2022-10-01T13:19:24.497Z,16.50
2022-10-01T13:21:53.250Z,16.50
2022-10-01T13:24:38.602Z,16.70
2022-10-01T13:27:28.411Z,16.90
2022-10-01T13:30:04.232Z,17.10
2022-10-01T13:32:37.517Z,17.20
2022-10-01T13:35:31.540Z,17.40
2022-10-01T13:38:01.951Z,17.50
2022-10-01T13:40:31.547Z,17.60
2022-10-01T13:43:13.157Z,17.60
2022-10-01T13:45:43.729Z,17.70
2022-10-01T13:48:10.482Z,17.60
2022-10-01T13:50:40.375Z,17.60
2022-10-01T13:53:20.617Z,17.70
2022-10-01T13:55:52.611Z,17.80
2022-10-01T13:58:30.189Z,18.00
2022-10-01T14:01:03.355Z,18.00
2022-10-01T14:03:49.746Z,17.90
2022-10-01T14:06:31.125Z,17.80
2022-10-01T14:09:13.786Z,17.60
2022-10-01T14:12:03.948Z,17.40
2022-10-01T14:14:58.980Z,17.10
2022-10-01T14:17:30.189Z,16.80
2022-10-01T14:19:58.065Z,16.60
2022-10-01T14:23:07.368Z,16.60
2022-10-01T14:25:39.818Z,16.60
2022-10-01T14:28:20.497Z,16.70
2022-10-01T14:30:58.461Z,16.80
2022-10-01T14:33:42.047Z,16.80
2022-10-01T14:36:29.503Z,16.80
2022-10-01T14:39:21.173Z,17.00
2022-10-01T14:41:50.390Z,17.00
2022-10-01T14:44:23.056Z,17.10
2022-10-01T14:46:51.269Z,17.10
2022-10-01T14:49:24.248Z,17.20
2022-10-01T14:51:55.258Z,17.20
2022-10-01T14:54:23.307Z,17.20
2022-10-01T14:56:50.890Z,17.00
2022-10-01T14:59:30.389Z,16.90
2022-10-01T15:02:03.841Z,16.80
2022-10-01T15:04:30.666Z,16.80
2022-10-01T15:07:04.656Z,16.70
2022-10-01T15:09:33.954Z,16.60
2022-10-01T15:12:01.172Z,16.60
2022-10-01T15:14:28.122Z,16.60
2022-10-01T15:16:55.296Z,16.70
2022-10-01T15:19:23.692Z,16.70
2022-10-01T15:21:56.241Z,16.70
2022-10-01T15:24:26.075Z,16.70
2022-10-01T15:26:54.435Z,16.70
2022-10-01T15:29:21.294Z,16.60
2022-10-01T15:31:50.432Z,16.50
2022-10-01T15:34:19.326Z,16.50
2022-10-01T15:36:48.319Z,16.60
2022-10-01T15:39:38.694Z,16.60
2022-10-01T15:42:25.636Z,16.50
2022-10-01T15:45:22.102Z,16.50
2022-10-01T15:47:51.834Z,16.50
2022-10-01T15:50:24.692Z,16.40
2022-10-01T15:53:06.435Z,16.50
2022-10-01T15:55:43.728Z,16.50
2022-10-01T15:58:10.419Z,16.50
2022-10-01T16:00:57.969Z,16.50
2022-10-01T16:03:29.968Z,16.40
2022-10-01T16:05:59.104Z,16.40
2022-10-01T16:08:34.072Z,16.30
2022-10-01T16:11:13.032Z,16.30
2022-10-01T16:13:45.539Z,16.30
2022-10-01T16:16:29.915Z,16.30
2022-10-01T16:19:18.623Z,16.30
2022-10-01T16:22:18.931Z,16.40
2022-10-01T16:24:57.561Z,16.40
2022-10-01T16:27:28.061Z,16.30
2022-10-01T16:30:23.105Z,16.30
2022-10-01T16:32:49.834Z,16.30
2022-10-01T16:35:21.500Z,16.30
2022-10-01T16:37:50.184Z,16.20
2022-10-01T16:40:18.258Z,16.10
2022-10-01T16:42:46.755Z,16.00
2022-10-01T16:45:17.778Z,16.00
2022-10-01T16:47:45.315Z,16.00
2022-10-01T16:50:14.450Z,15.90
2022-10-01T16:52:41.379Z,15.80
2022-10-01T16:55:22.739Z,15.80
2022-10-01T16:57:50.652Z,15.80
2022-10-01T17:00:19.119Z,15.70
2022-10-01T17:02:45.989Z,15.70
2022-10-01T17:05:19.831Z,15.60
2022-10-01T17:07:46.726Z,15.50
2022-10-01T17:10:13.969Z,15.40
2022-10-01T17:12:41.346Z,15.40
2022-10-01T17:15:11.814Z,15.40
2022-10-01T17:17:38.563Z,15.30
2022-10-01T17:20:05.546Z,15.20
2022-10-01T17:22:32.382Z,15.20
2022-10-01T17:24:59.161Z,15.20
2022-10-01T17:27:25.940Z,15.10
2022-10-01T17:29:53.472Z,15.00
2022-10-01T17:32:20.186Z,15.00
2022-10-01T17:34:46.863Z,15.00
2022-10-01T17:37:13.846Z,14.90
2022-10-01T17:39:42.811Z,14.90
2022-10-01T17:42:10.614Z,14.80
2022-10-01T17:44:37.344Z,14.70
2022-10-01T17:47:04.516Z,14.80
2022-10-01T17:49:31.289Z,14.70
2022-10-01T17:51:58.019Z,14.70
2022-10-01T17:54:25.254Z,14.70
2022-10-01T17:56:55.365Z,14.70
2022-10-01T17:59:22.209Z,14.70
2022-10-01T18:01:49.468Z,14.70
2022-10-01T18:04:17.190Z,14.60
2022-10-01T18:06:43.943Z,14.60
2022-10-01T18:09:10.653Z,14.50
2022-10-01T18:11:38.275Z,14.50
2022-10-01T18:14:07.530Z,14.50
2022-10-01T18:16:35.340Z,14.40
2022-10-01T18:21:51.011Z,14.30
2022-10-01T18:24:17.916Z,14.30
2022-10-01T18:26:45.701Z,14.30
2022-10-01T18:29:18.639Z,14.20
2022-10-01T18:31:45.550Z,14.20
2022-10-01T18:34:28.592Z,14.10
2022-10-01T18:37:15.350Z,14.10
2022-10-01T18:39:52.592Z,14.10
2022-10-01T18:42:25.114Z,14.10
2022-10-01T18:44:57.886Z,14.10
2022-10-01T18:47:42.653Z,13.90
2022-10-01T18:50:40.280Z,13.80
2022-10-01T18:53:20.167Z,13.70
2022-10-01T18:56:18.754Z,13.60
2022-10-01T18:59:00.479Z,13.50
2022-10-01T19:01:42.073Z,13.40
2022-10-01T19:04:20.181Z,13.40
2022-10-01T19:06:50.290Z,13.20
2022-10-01T19:09:25.562Z,13.20
2022-10-01T19:12:09.826Z,13.20
2022-10-01T19:14:55.970Z,13.20
2022-10-01T19:17:44.133Z,13.20
2022-10-01T19:20:13.945Z,13.20
2022-10-01T19:23:11.769Z,13.20
2022-10-01T19:25:49.923Z,13.30
2022-10-01T19:28:46.225Z,13.20
2022-10-01T19:31:24.799Z,13.20
2022-10-01T19:34:02.262Z,13.10
2022-10-01T19:36:35.301Z,13.00
2022-10-01T19:39:09.519Z,12.90
2022-10-01T19:41:44.369Z,12.90
2022-10-01T19:44:25.529Z,12.80
2022-10-01T19:46:58.408Z,12.70
2022-10-01T19:49:39.110Z,12.70
2022-10-01T19:52:12.849Z,12.60
2022-10-01T19:54:47.099Z,12.60
2022-10-01T19:57:30.716Z,12.60
2022-10-01T20:00:12.326Z,12.70
2022-10-01T20:03:23.471Z,12.80
2022-10-01T20:05:58.420Z,12.70
2022-10-01T20:08:49.857Z,12.70
2022-10-01T20:11:30.175Z,12.70
2022-10-01T20:14:36.468Z,12.70
2022-10-01T20:17:13.329Z,12.60
2022-10-01T20:19:52.754Z,12.60
2022-10-01T20:22:31.830Z,12.60
2022-10-01T20:25:14.249Z,12.60
2022-10-01T20:28:00.921Z,12.70
2022-10-01T20:30:30.199Z,12.70
2022-10-01T20:33:29.257Z,12.70
2022-10-01T20:36:10.668Z,12.70
2022-10-01T20:38:44.717Z,12.70
2022-10-01T20:41:18.084Z,12.80
2022-10-01T20:43:51.081Z,12.80
2022-10-01T20:46:38.853Z,12.90
2022-10-01T20:49:34.258Z,12.90
2022-10-01T20:52:27.167Z,12.90
2022-10-01T20:55:03.741Z,12.90
2022-10-01T20:57:39.495Z,12.90
2022-10-01T21:00:14.221Z,12.90
2022-10-01T21:02:46.480Z,12.90
2022-10-01T21:05:22.100Z,12.90
2022-10-01T21:07:59.313Z,12.80
2022-10-01T21:10:36.259Z,12.70
2022-10-01T21:13:19.807Z,12.60
2022-10-01T21:15:54.815Z,12.60
2022-10-01T21:18:38.940Z,12.50
2022-10-01T21:21:23.217Z,12.50
2022-10-01T21:24:26.041Z,12.50
2022-10-01T21:27:29.959Z,12.40
2022-10-01T21:30:12.558Z,12.40
2022-10-01T21:32:56.833Z,12.50
2022-10-01T21:35:39.284Z,12.40
2022-10-01T21:38:37.808Z,12.40
2022-10-01T21:41:28.231Z,12.40
2022-10-01T21:44:01.519Z,12.40
2022-10-01T21:46:38.348Z,12.40
2022-10-01T21:49:29.881Z,12.40
2022-10-01T21:52:20.186Z,12.40
2022-10-01T21:55:11.223Z,12.40
2022-10-01T21:58:17.233Z,12.40
2022-10-01T22:01:12.424Z,12.40
2022-10-01T22:03:59.626Z,12.40
2022-10-01T22:06:36.083Z,12.40
2022-10-01T22:09:15.623Z,12.40
2022-10-01T22:11:48.640Z,12.40
2022-10-01T22:14:20.772Z,12.40
2022-10-01T22:17:03.572Z,12.40
2022-10-01T22:19:38.185Z,12.40
2022-10-01T22:22:25.612Z,12.40
2022-10-01T22:24:54.365Z,12.40
2022-10-01T22:27:44.329Z,12.40
2022-10-01T22:30:20.503Z,12.40
2022-10-01T22:33:08.329Z,12.50
2022-10-01T22:35:51.379Z,12.50
2022-10-01T22:38:36.038Z,12.50
2022-10-01T22:41:13.556Z,12.50
2022-10-01T22:43:43.396Z,12.50
2022-10-01T22:46:25.152Z,12.40
2022-10-01T22:48:52.734Z,12.50
2022-10-01T22:52:01.671Z,12.50
2022-10-01T22:54:52.841Z,12.40
2022-10-01T22:58:02.901Z,12.50
2022-10-01T23:00:36.465Z,12.50
2022-10-01T23:03:32.527Z,12.50
2022-10-01T23:06:33.771Z,12.50
2022-10-01T23:09:20.395Z,12.60
2022-10-01T23:11:52.826Z,12.50
2022-10-01T23:14:49.816Z,12.50
2022-10-01T23:17:35.325Z,12.50
2022-10-01T23:20:13.048Z,12.40
2022-10-01T23:23:01.349Z,12.40
2022-10-01T23:25:43.939Z,12.30
2022-10-01T23:28:29.074Z,12.30
2022-10-01T23:31:25.953Z,12.30
2022-10-01T23:34:10.219Z,12.40
2022-10-01T23:36:57.143Z,12.40
2022-10-01T23:39:41.766Z,12.30
2022-10-01T23:42:20.849Z,12.30
2022-10-01T23:45:08.817Z,12.20
2022-10-01T23:47:52.856Z,12.20
2022-10-01T23:50:37.425Z,12.20
2022-10-01T23:53:16.416Z,12.20
2022-10-01T23:56:20.799Z,12.20
2022-10-01T23:58:54.423Z,12.20
